Time;durP1;ratioP1;P1;durP2;ratioP2;P2;SDS_P1;SDS_P2;PMS_P1;PMS_P2;Temp;Humidity;BMP_temperature;BMP_pressure;BME280_temperature;BME280_humidity;BME280_pressure;Samples;Min_cycle;Max_cycle;Signal;HPM_P1;HPM_P2
2023/06/20 00:01:07;;;;;;;11.00;9.80;;;;;;;17.69;100.00;96017.19;7406630;19;20742;-77
2023/06/20 00:03:34;;;;;;;17.43;11.70;;;;;;;17.68;100.00;96040.50;7405534;19;20401;-77
2023/06/20 00:06:01;;;;;;;21.63;12.10;;;;;;;17.65;100.00;96027.09;7404157;19;20953;-77
2023/06/20 00:08:28;;;;;;;12.30;11.03;;;;;;;17.94;100.00;96050.09;7411031;19;20378;-77
2023/06/20 00:10:55;;;;;;;17.10;11.10;;;;;;;17.82;100.00;96025.59;7410378;19;20339;-77
2023/06/20 00:13:23;;;;;;;17.60;10.83;;;;;;;17.93;100.00;96043.22;7411771;19;20377;-77
2023/06/20 00:15:50;;;;;;;22.10;12.80;;;;;;;17.92;100.00;96048.94;7402537;19;20426;-77
2023/06/20 00:18:17;;;;;;;19.43;12.57;;;;;;;17.72;100.00;96025.19;7403363;19;20381;-77
2023/06/20 00:20:47;;;;;;;13.13;10.90;;;;;;;17.69;100.00;96036.66;7400239;19;20391;-77
2023/06/20 00:23:16;;;;;;;20.40;11.50;;;;;;;17.82;100.00;96034.41;7400861;19;20477;-77
2023/06/20 00:25:43;;;;;;;11.50;10.30;;;;;;;17.70;100.00;96005.34;7397764;19;20412;-77
2023/06/20 00:28:12;;;;;;;11.50;10.50;;;;;;;18.00;100.00;96037.84;7401723;19;20373;-77
2023/06/20 00:30:39;;;;;;;11.70;10.67;;;;;;;17.94;100.00;96017.97;7399386;19;20411;-77
2023/06/20 00:33:06;;;;;;;11.43;10.53;;;;;;;17.98;100.00;96034.78;7401336;19;20402;-77
2023/06/20 00:35:33;;;;;;;10.90;9.97;;;;;;;17.70;100.00;96006.09;7398556;19;20492;-77
2023/06/20 00:38:01;;;;;;;10.40;9.40;;;;;;;17.79;100.00;96029.81;7398697;19;20368;-77
2023/06/20 00:40:29;;;;;;;12.43;11.33;;;;;;;17.59;100.00;96007.97;7399643;19;20413;-76
2023/06/20 00:42:56;;;;;;;11.97;10.80;;;;;;;17.68;100.00;96010.28;7397260;19;20397;-77
2023/06/20 00:45:33;;;;;;;11.30;10.20;;;;;;;17.75;100.00;96023.69;7397717;19;20479;-77
2023/06/20 00:48:02;;;;;;;10.60;9.70;;;;;;;17.70;100.00;96027.50;7397646;19;20348;-77
2023/06/20 00:50:30;;;;;;;9.97;9.17;;;;;;;17.89;100.00;96020.25;7398954;19;20407;-77
2023/06/20 00:53:04;;;;;;;9.87;9.03;;;;;;;17.80;100.00;96012.63;7397626;19;20380;-77
2023/06/20 00:55:33;;;;;;;11.47;10.40;;;;;;;17.82;100.00;96033.63;7405842;19;20393;-77
2023/06/20 00:58:01;;;;;;;11.27;10.30;;;;;;;17.63;100.00;96029.38;7400978;19;20374;-76
2023/06/20 01:00:34;;;;;;;11.70;10.70;;;;;;;17.49;100.00;96024.72;7403780;19;20368;-77
2023/06/20 01:03:06;;;;;;;11.67;10.67;;;;;;;17.20;100.00;96015.09;7401342;19;20839;-77
2023/06/20 01:05:35;;;;;;;11.27;10.23;;;;;;;17.26;100.00;96017.06;7401740;19;20427;-76
2023/06/20 01:08:17;;;;;;;14.10;10.17;;;;;;;17.58;100.00;96035.09;7408033;19;20922;-76
2023/06/20 01:10:47;;;;;;;14.20;10.90;;;;;;;17.60;100.00;96035.47;7407784;19;20413;-76
2023/06/20 01:13:38;;;;;;;21.67;12.90;;;;;;;17.53;100.00;96025.53;7407696;19;20389;-76
2023/06/20 01:16:37;;;;;;;18.00;11.60;;;;;;;17.55;100.00;96031.25;7404942;19;20458;-76
2023/06/20 01:19:43;;;;;;;19.53;10.43;;;;;;;17.42;100.00;96032.75;7406894;19;20369;-77
2023/06/20 01:22:27;;;;;;;19.67;11.90;;;;;;;17.35;100.00;96020.13;7407233;19;20498;-77
2023/06/20 01:24:58;;;;;;;19.47;11.93;;;;;;;17.38;100.00;96026.63;7406327;19;20397;-76
2023/06/20 01:27:34;;;;;;;14.70;12.63;;;;;;;17.31;100.00;96014.00;7406919;19;20403;-76
2023/06/20 01:30:22;;;;;;;14.43;13.03;;;;;;;17.39;100.00;96015.56;7403729;19;20364;-77
2023/06/20 01:32:54;;;;;;;17.07;12.87;;;;;;;17.41;100.00;96031.22;7403920;19;20383;-77
2023/06/20 01:35:26;;;;;;;14.03;12.47;;;;;;;17.08;100.00;96027.66;7400444;19;20981;-77
2023/06/20 01:38:00;;;;;;;14.77;11.20;;;;;;;16.93;100.00;96026.06;7405606;19;20902;-77
2023/06/20 01:40:27;;;;;;;17.07;12.50;;;;;;;17.13;100.00;96029.97;7404551;19;20864;-77
2023/06/20 01:42:58;;;;;;;12.70;11.47;;;;;;;17.28;100.00;96044.16;7403050;19;20353;-77
2023/06/20 01:45:32;;;;;;;11.67;10.57;;;;;;;17.14;100.00;96031.50;7402610;19;20382;-77
2023/06/20 01:48:02;;;;;;;13.13;11.63;;;;;;;17.05;100.00;96043.66;7403790;19;20387;-77
2023/06/20 01:50:30;;;;;;;15.60;12.33;;;;;;;16.57;100.00;96014.41;7405540;19;20340;-77
2023/06/20 01:52:59;;;;;;;17.30;12.47;;;;;;;16.01;100.00;95996.06;7400998;19;20380;-77
2023/06/20 01:55:29;;;;;;;19.90;13.40;;;;;;;16.37;100.00;96010.44;7401644;19;20840;-77
2023/06/20 01:58:00;;;;;;;13.20;11.63;;;;;;;16.47;100.00;96010.53;7401637;19;20363;-77
2023/06/20 02:00:28;;;;;;;13.73;11.60;;;;;;;16.63;100.00;96004.13;7403367;19;20748;-77
2023/06/20 02:02:58;;;;;;;15.57;11.83;;;;;;;16.73;100.00;96035.50;7402853;19;20351;-77
2023/06/20 02:05:27;;;;;;;12.93;11.40;;;;;;;16.61;100.00;96027.75;7402007;19;20428;-77
2023/06/20 02:07:57;;;;;;;13.33;11.23;;;;;;;16.73;100.00;96027.50;7401265;19;20361;-77
2023/06/20 02:10:27;;;;;;;17.57;13.70;;;;;;;16.03;100.00;95999.94;7398713;19;20385;-77
2023/06/20 02:12:55;;;;;;;12.60;10.77;;;;;;;16.36;100.00;96024.94;7403238;19;20384;-77
2023/06/20 02:15:25;;;;;;;12.47;11.20;;;;;;;16.71;100.00;96027.09;7398564;19;20435;-77
2023/06/20 02:17:53;;;;;;;11.67;10.57;;;;;;;16.47;100.00;95991.84;7399916;19;20728;-77
2023/06/20 02:20:20;;;;;;;12.43;11.33;;;;;;;16.52;100.00;96014.75;7401914;19;20355;-77
2023/06/20 02:22:50;;;;;;;12.73;11.53;;;;;;;16.26;100.00;95984.47;7401783;19;20406;-77
2023/06/20 02:25:24;;;;;;;11.80;10.80;;;;;;;16.24;100.00;95996.63;7398971;19;20429;-77
2023/06/20 02:27:54;;;;;;;12.70;11.70;;;;;;;16.59;100.00;96016.69;7401822;19;20376;-77
2023/06/20 02:30:27;;;;;;;11.83;10.83;;;;;;;16.49;100.00;95994.91;7401805;19;20400;-77
2023/06/20 02:32:57;;;;;;;13.13;12.13;;;;;;;16.41;100.00;95995.97;7400526;19;20422;-77
2023/06/20 02:35:25;;;;;;;14.23;12.93;;;;;;;16.42;100.00;96021.53;7398439;19;20400;-77
2023/06/20 02:37:58;;;;;;;13.30;12.00;;;;;;;16.67;100.00;96018.25;7402556;19;20384;-77
2023/06/20 02:40:25;;;;;;;13.90;12.70;;;;;;;16.61;100.00;96038.44;7400423;19;20389;-77
2023/06/20 02:42:52;;;;;;;14.37;11.63;;;;;;;16.19;100.00;96026.34;7399331;19;20905;-77
2023/06/20 02:45:20;;;;;;;12.40;11.30;;;;;;;16.15;100.00;96004.19;7400653;19;20425;-78
2023/06/20 02:48:19;;;;;;;15.97;12.00;;;;;;;16.71;100.00;96049.22;7400032;19;20375;-79
2023/06/20 02:51:05;;;;;;;15.50;12.30;;;;;;;16.70;100.00;96054.94;7400298;19;20470;-78
2023/06/20 02:53:53;;;;;;;13.83;12.60;;;;;;;16.55;100.00;96064.69;7402650;19;20779;-79
2023/06/20 02:56:21;;;;;;;13.07;11.87;;;;;;;15.96;100.00;96023.84;7400079;19;20390;-78
2023/06/20 02:58:54;;;;;;;13.40;12.30;;;;;;;15.73;100.00;96029.34;7402590;19;20371;-78
2023/06/20 03:01:25;;;;;;;14.73;13.53;;;;;;;15.39;100.00;95980.66;7401311;19;20896;-78
2023/06/20 03:03:55;;;;;;;14.13;12.73;;;;;;;15.75;100.00;96051.06;7402925;19;20402;-78
2023/06/20 03:06:28;;;;;;;13.90;12.80;;;;;;;15.70;100.00;96038.09;7402332;19;20355;-78
2023/06/20 03:08:58;;;;;;;18.60;11.57;;;;;;;15.79;100.00;96046.56;7401252;19;20399;-78
2023/06/20 03:11:25;;;;;;;13.27;11.97;;;;;;;15.66;100.00;96026.63;7400934;19;20477;-78
2023/06/20 03:13:52;;;;;;;13.47;12.17;;;;;;;15.89;100.00;96039.78;7399519;19;20347;-78
2023/06/20 03:16:19;;;;;;;13.57;12.37;;;;;;;15.97;100.00;96057.38;7396593;19;20402;-78
2023/06/20 03:18:47;;;;;;;12.40;11.40;;;;;;;16.10;100.00;96057.88;7397691;19;20958;-78
2023/06/20 03:21:15;;;;;;;14.67;12.90;;;;;;;16.06;100.00;96057.84;7411358;19;20394;-78
2023/06/20 03:23:56;;;;;;;14.07;12.77;;;;;;;16.16;100.00;96070.53;7429239;19;20358;-78
2023/06/20 03:26:23;;;;;;;14.27;12.97;;;;;;;16.07;100.00;96066.63;7434492;19;20415;-78
2023/06/20 03:28:50;;;;;;;14.17;12.90;;;;;;;16.32;100.00;96083.63;7430157;19;20399;-78
2023/06/20 03:31:18;;;;;;;14.80;13.50;;;;;;;16.30;100.00;96064.53;7426720;19;20439;-78
2023/06/20 03:33:45;;;;;;;14.13;12.67;;;;;;;16.14;100.00;96077.34;7406945;19;20368;-78
2023/06/20 03:36:12;;;;;;;14.40;13.00;;;;;;;16.00;100.00;96091.31;7399650;19;20415;-77
2023/06/20 03:38:42;;;;;;;13.80;12.60;;;;;;;15.95;100.00;96081.00;7419023;19;20406;-77
2023/06/20 03:41:09;;;;;;;13.07;11.80;;;;;;;15.75;100.00;96051.06;7412096;19;20415;-76
2023/06/20 03:43:36;;;;;;;14.30;12.97;;;;;;;16.01;100.00;96070.75;7398642;19;20408;-76
2023/06/20 03:46:03;;;;;;;14.50;12.63;;;;;;;16.13;100.00;96070.47;7398232;19;20436;-76
2023/06/20 03:48:30;;;;;;;13.93;12.83;;;;;;;16.27;100.00;96087.38;7398450;19;20751;-76
2023/06/20 03:50:59;;;;;;;13.23;11.93;;;;;;;15.84;100.00;96064.88;7399803;19;20969;-76
2023/06/20 03:53:27;;;;;;;13.43;12.27;;;;;;;15.83;100.00;96071.34;7398550;19;20414;-76
2023/06/20 03:55:54;;;;;;;13.20;12.23;;;;;;;15.96;100.00;96087.84;7395207;19;20422;-76
2023/06/20 03:58:21;;;;;;;13.90;12.73;;;;;;;15.87;100.00;96090.81;7397857;19;20945;-76
2023/06/20 04:00:48;;;;;;;14.07;11.60;;;;;;;15.79;100.00;96067.13;7396916;19;20368;-76
2023/06/20 04:03:16;;;;;;;13.50;12.33;;;;;;;16.11;100.00;96100.19;7398123;19;20392;-76
2023/06/20 04:05:43;;;;;;;14.07;12.77;;;;;;;16.47;100.00;96127.19;7395663;19;20471;-76
2023/06/20 04:08:11;;;;;;;16.97;13.80;;;;;;;16.44;100.00;96141.28;7398162;19;21063;-76
2023/06/20 04:10:38;;;;;;;14.00;12.80;;;;;;;16.21;100.00;96128.09;7397033;19;20396;-77
2023/06/20 04:13:05;;;;;;;13.83;12.53;;;;;;;16.25;100.00;96156.34;7397942;19;20461;-77
2023/06/20 04:15:33;;;;;;;15.60;14.30;;;;;;;16.17;100.00;96178.75;7395355;19;20434;-77
2023/06/20 04:18:01;;;;;;;16.50;15.10;;;;;;;15.73;100.00;96129.88;7398006;19;20402;-76
2023/06/20 04:20:29;;;;;;;15.17;13.87;;;;;;;16.06;100.00;96183.22;7396494;19;20390;-76
2023/06/20 04:22:57;;;;;;;14.67;13.37;;;;;;;15.95;100.00;96175.09;7397511;19;20378;-76
2023/06/20 04:25:24;;;;;;;13.33;12.23;;;;;;;15.95;100.00;96171.66;7393308;19;20438;-76
2023/06/20 04:27:55;;;;;;;18.37;15.77;;;;;;;15.71;100.00;96127.59;7397581;19;20382;-77
2023/06/20 04:30:32;;;;;;;13.83;12.43;;;;;;;16.15;100.00;96181.00;7394667;19;20378;-77
2023/06/20 04:32:59;;;;;;;16.13;14.63;;;;;;;16.16;100.00;96166.56;7397767;19;20427;-76
2023/06/20 04:35:27;;;;;;;13.10;12.00;;;;;;;16.56;100.00;96194.38;7395069;19;20435;-77
2023/06/20 04:37:56;;;;;;;15.30;13.73;;;;;;;16.58;100.00;96181.44;7397825;19;20394;-77
2023/06/20 04:40:26;;;;;;;14.13;12.83;;;;;;;16.43;100.00;96169.09;7397364;19;20344;-76
2023/06/20 04:42:53;;;;;;;13.30;12.10;;;;;;;16.60;100.00;96187.16;7397176;19;20378;-76
2023/06/20 04:45:23;;;;;;;13.83;12.40;;;;;;;16.55;100.00;96166.13;7395691;19;20454;-77
2023/06/20 04:47:50;;;;;;;12.90;11.80;;;;;;;16.74;100.00;96176.63;7395209;19;20448;-76
2023/06/20 04:50:17;;;;;;;14.10;12.50;;;;;;;16.74;100.00;96170.53;7396565;19;20372;-76
2023/06/20 04:52:44;;;;;;;14.50;13.03;;;;;;;16.84;100.00;96189.31;7395671;19;20407;-76
2023/06/20 04:55:11;;;;;;;14.60;13.33;;;;;;;16.98;100.00;96209.25;7395550;19;20423;-76
2023/06/20 04:57:40;;;;;;;13.43;12.30;;;;;;;16.89;100.00;96185.53;7395115;19;20389;-76
2023/06/20 05:00:10;;;;;;;14.00;12.80;;;;;;;16.77;100.00;96181.22;7396856;19;20409;-76
2023/06/20 05:02:42;;;;;;;14.73;13.23;;;;;;;16.98;100.00;96202.00;7395371;19;20401;-76
2023/06/20 05:05:09;;;;;;;14.97;13.63;;;;;;;16.81;100.00;96166.00;7396297;19;20458;-76
2023/06/20 05:07:41;;;;;;;14.40;13.20;;;;;;;17.00;100.00;96198.97;7394826;19;20395;-76
2023/06/20 05:10:09;;;;;;;14.00;12.70;;;;;;;17.01;100.00;96187.91;7396742;19;20963;-76
2023/06/20 05:12:36;;;;;;;14.00;12.80;;;;;;;16.94;100.00;96187.06;7392771;19;20423;-76
2023/06/20 05:15:04;;;;;;;17.47;14.17;;;;;;;17.01;100.00;96185.22;7395544;19;20779;-75
2023/06/20 05:17:31;;;;;;;15.70;13.97;;;;;;;17.06;100.00;96186.78;7393360;19;20356;-76
2023/06/20 05:20:05;;;;;;;14.60;13.40;;;;;;;16.87;100.00;96155.00;7396541;19;20901;-76
2023/06/20 05:22:33;;;;;;;14.43;13.27;;;;;;;16.97;100.00;96154.31;7396050;19;20356;-75
2023/06/20 05:25:00;;;;;;;15.47;14.07;;;;;;;17.10;100.00;96166.22;7397236;19;20771;-76
2023/06/20 05:27:27;;;;;;;14.03;12.63;;;;;;;17.00;100.00;96159.66;7395789;19;20370;-77
2023/06/20 05:29:54;;;;;;;17.47;14.47;;;;;;;17.07;100.00;96157.03;7396803;19;20396;-75
2023/06/20 05:32:21;;;;;;;14.93;13.70;;;;;;;16.83;100.00;96137.03;7394002;19;20422;-75
2023/06/20 05:34:50;;;;;;;16.47;14.90;;;;;;;16.91;100.00;96145.09;7392886;19;20428;-75
2023/06/20 05:37:17;;;;;;;14.23;13.03;;;;;;;17.20;100.00;96162.06;7393251;19;20728;-75
2023/06/20 05:39:44;;;;;;;15.03;13.63;;;;;;;17.18;100.00;96142.97;7394780;19;20355;-75
2023/06/20 05:42:11;;;;;;;15.93;14.47;;;;;;;17.12;100.00;96159.38;7394535;19;20762;-75
2023/06/20 05:44:38;;;;;;;15.63;14.00;;;;;;;17.12;100.00;96151.34;7392959;19;20424;-74
2023/06/20 05:47:06;;;;;;;15.60;14.20;;;;;;;17.37;100.00;96156.84;7395039;19;20753;-74
2023/06/20 05:49:33;;;;;;;15.30;13.90;;;;;;;17.41;100.00;96146.16;7393493;19;20410;-75
2023/06/20 05:51:59;;;;;;;15.13;13.83;;;;;;;17.43;100.00;96158.00;7395137;19;20392;-75
2023/06/20 05:54:26;;;;;;;14.80;13.57;;;;;;;17.20;100.00;96152.13;7399067;19;20395;-75
2023/06/20 05:56:55;;;;;;;14.80;13.60;;;;;;;17.54;100.00;96170.66;7400538;19;20395;-75
2023/06/20 05:59:22;;;;;;;15.37;13.80;;;;;;;17.54;100.00;96150.03;7403844;19;20385;-75
2023/06/20 06:01:49;;;;;;;15.70;14.20;;;;;;;17.77;100.00;96163.16;7401711;19;20729;-76
2023/06/20 06:04:16;;;;;;;16.53;15.13;;;;;;;17.79;100.00;96125.34;7400273;19;20407;-75
2023/06/20 06:06:44;;;;;;;15.80;14.40;;;;;;;18.21;100.00;96151.44;7402164;19;20430;-75
2023/06/20 06:09:11;;;;;;;15.73;14.30;;;;;;;18.10;100.00;96123.88;7402820;19;20377;-75
2023/06/20 06:11:38;;;;;;;15.67;14.27;;;;;;;18.56;100.00;96148.00;7404069;19;20376;-75
2023/06/20 06:14:05;;;;;;;18.70;16.70;;;;;;;18.36;100.00;96136.16;7399992;19;20417;-75
2023/06/20 06:16:32;;;;;;;17.80;16.40;;;;;;;18.58;100.00;96135.03;7401278;19;20419;-75
2023/06/20 06:19:00;;;;;;;15.43;14.13;;;;;;;18.87;100.00;96170.63;7401863;19;20912;-76
2023/06/20 06:21:27;;;;;;;15.07;13.63;;;;;;;18.91;100.00;96168.72;7402093;19;20429;-74
2023/06/20 06:23:54;;;;;;;17.73;15.90;;;;;;;18.98;100.00;96187.47;7400022;19;20382;-75
2023/06/20 06:26:21;;;;;;;15.83;14.40;;;;;;;19.15;100.00;96178.63;7402957;19;20886;-75
2023/06/20 06:28:49;;;;;;;15.40;13.90;;;;;;;19.27;100.00;96193.56;7401846;19;20352;-75
2023/06/20 06:31:24;;;;;;;17.20;15.80;;;;;;;19.22;100.00;96190.50;7402674;19;20368;-76
2023/06/20 06:33:54;;;;;;;17.00;15.47;;;;;;;19.03;100.00;96164.88;7402699;19;20908;-75
2023/06/20 06:36:21;;;;;;;17.30;15.80;;;;;;;19.32;100.00;96187.78;7401519;19;20384;-75
2023/06/20 06:38:48;;;;;;;17.40;15.60;;;;;;;19.49;100.00;96178.94;7401119;19;20337;-76
2023/06/20 06:41:19;;;;;;;20.60;18.80;;;;;;;19.58;100.00;96170.53;7402257;19;20379;-76
2023/06/20 06:43:46;;;;;;;17.60;16.10;;;;;;;19.44;100.00;96205.41;7400646;19;20398;-76
2023/06/20 06:46:15;;;;;;;18.00;16.30;;;;;;;19.58;100.00;96180.50;7397291;19;20444;-75
2023/06/20 06:48:41;;;;;;;17.20;15.60;;;;;;;19.77;100.00;96199.59;7401374;19;20368;-75
2023/06/20 06:51:08;;;;;;;17.43;15.83;;;;;;;19.63;100.00;96196.16;7400514;19;20376;-76
2023/06/20 06:53:35;;;;;;;17.70;16.10;;;;;;;19.74;100.00;96188.84;7400748;19;20397;-75
2023/06/20 06:56:02;;;;;;;17.30;15.77;;;;;;;19.88;100.00;96178.06;7396493;19;20991;-76
2023/06/20 06:58:29;;;;;;;18.93;17.23;;;;;;;20.07;100.00;96180.28;7400628;19;20406;-76
2023/06/20 07:00:56;;;;;;;17.53;15.90;;;;;;;20.01;100.00;96194.50;7398859;19;20392;-75
2023/06/20 07:03:24;;;;;;;18.40;16.80;;;;;;;19.85;100.00;96194.94;7400279;19;20381;-76
2023/06/20 07:05:51;;;;;;;19.70;17.63;;;;;;;19.80;100.00;96186.56;7396460;19;20442;-76
2023/06/20 07:08:18;;;;;;;19.23;17.63;;;;;;;20.15;100.00;96207.09;7400206;19;20345;-75
2023/06/20 07:10:47;;;;;;;17.30;15.60;;;;;;;20.41;100.00;96211.94;7398552;19;20880;-75
2023/06/20 07:13:13;;;;;;;18.00;16.40;;;;;;;20.28;100.00;96200.88;7399761;19;20409;-75
2023/06/20 07:15:40;;;;;;;16.60;15.20;;;;;;;20.31;100.00;96208.19;7396781;19;20473;-75
2023/06/20 07:18:08;;;;;;;19.07;17.10;;;;;;;20.32;100.00;96200.88;7399862;19;20376;-75
2023/06/20 07:20:35;;;;;;;17.63;16.03;;;;;;;20.36;100.00;96202.38;7398626;19;20426;-75
2023/06/20 07:23:02;;;;;;;19.80;18.10;;;;;;;20.04;100.00;96167.66;7399799;19;20712;-75
2023/06/20 07:25:29;;;;;;;18.20;16.60;;;;;;;20.21;100.00;96178.69;7396765;19;20462;-76
2023/06/20 07:27:57;;;;;;;17.23;15.73;;;;;;;20.33;100.00;96197.81;7400290;19;20386;-76
2023/06/20 07:30:24;;;;;;;19.20;16.20;;;;;;;20.25;100.00;96188.25;7398269;19;20397;-77
2023/06/20 07:32:51;;;;;;;18.33;16.40;;;;;;;20.35;100.00;96208.16;7399658;19;20402;-77
2023/06/20 07:35:18;;;;;;;17.50;15.90;;;;;;;20.35;100.00;96195.47;7397598;19;20392;-77
2023/06/20 07:37:45;;;;;;;18.63;15.37;;;;;;;20.29;100.00;96172.09;7400109;19;20389;-77
2023/06/20 07:40:12;;;;;;;21.37;19.37;;;;;;;20.31;100.00;96175.94;7398773;19;20405;-77
2023/06/20 07:42:39;;;;;;;19.30;17.53;;;;;;;20.52;100.00;96174.31;7400782;19;20437;-77
2023/06/20 07:45:06;;;;;;;20.53;18.53;;;;;;;20.52;100.00;96172.38;7398609;19;20392;-77
2023/06/20 07:47:33;;;;;;;18.73;17.13;;;;;;;20.48;100.00;96182.38;7399766;19;20693;-77
2023/06/20 07:50:00;;;;;;;18.40;16.90;;;;;;;20.65;100.00;96186.88;7397912;19;20924;-77
2023/06/20 07:52:27;;;;;;;16.33;14.93;;;;;;;20.81;100.00;96191.72;7399073;19;20402;-77
2023/06/20 07:54:55;;;;;;;18.27;16.60;;;;;;;20.98;100.00;96194.69;7396606;19;20426;-77
2023/06/20 07:57:22;;;;;;;17.33;15.83;;;;;;;20.99;100.00;96197.00;7398040;19;20804;-77
2023/06/20 07:59:50;;;;;;;19.30;17.67;;;;;;;21.06;100.00;96201.53;7398173;19;20381;-77
2023/06/20 08:02:17;;;;;;;17.33;15.93;;;;;;;20.90;100.00;96183.22;7399881;19;20787;-77
2023/06/20 08:04:43;;;;;;;18.23;16.63;;;;;;;20.65;100.00;96180.72;7398300;19;20402;-77
2023/06/20 08:07:10;;;;;;;19.67;18.07;;;;;;;20.69;100.00;96178.00;7399531;19;20412;-77
2023/06/20 08:09:37;;;;;;;21.20;18.07;;;;;;;20.83;100.00;96181.38;7397986;19;20438;-77
2023/06/20 08:12:05;;;;;;;18.40;16.70;;;;;;;21.00;100.00;96177.00;7401655;19;20889;-77
2023/06/20 08:14:32;;;;;;;18.77;17.10;;;;;;;20.94;100.00;96163.22;7404318;19;20387;-77
2023/06/20 08:16:59;;;;;;;18.97;17.37;;;;;;;20.97;100.00;96183.19;7397173;19;20369;-77
2023/06/20 08:19:26;;;;;;;20.67;18.77;;;;;;;21.05;100.00;96163.13;7405817;19;20414;-77
2023/06/20 08:21:52;;;;;;;20.63;18.60;;;;;;;21.16;100.00;96197.97;7401911;19;20402;-77
2023/06/20 08:24:19;;;;;;;18.53;16.83;;;;;;;21.60;100.00;96202.56;7400933;19;20904;-76
2023/06/20 08:26:46;;;;;;;18.87;16.60;;;;;;;22.16;100.00;96183.47;7402067;19;20405;-76
2023/06/20 08:29:14;;;;;;;17.43;15.80;;;;;;;22.79;100.00;96197.19;7413388;19;20391;-78
2023/06/20 08:31:41;;;;;;;18.93;17.03;;;;;;;22.75;100.00;96194.56;7432929;19;20414;-77
2023/06/20 08:34:08;;;;;;;19.03;17.43;;;;;;;23.62;100.00;96208.19;7427663;19;20450;-78
2023/06/20 08:36:36;;;;;;;18.10;16.20;;;;;;;23.62;100.00;96171.13;7420439;19;20390;-76
2023/06/20 08:39:06;;;;;;;16.67;15.23;;;;;;;23.88;100.00;96193.78;7394699;19;20335;-76
2023/06/20 08:41:33;;;;;;;16.83;15.50;;;;;;;23.94;100.00;96196.78;7402676;19;20387;-77
2023/06/20 08:44:00;;;;;;;18.33;16.80;;;;;;;23.85;100.00;96192.69;7401927;19;20354;-76
2023/06/20 08:46:27;;;;;;;20.27;18.23;;;;;;;24.01;100.00;96208.19;7398711;19;20386;-76
2023/06/20 08:48:54;;;;;;;16.10;14.63;;;;;;;24.30;100.00;96216.47;7401930;19;20409;-77
2023/06/20 08:51:23;;;;;;;17.73;15.07;;;;;;;24.55;100.00;96204.38;7398859;19;20386;-76
2023/06/20 08:53:53;;;;;;;16.43;15.17;;;;;;;24.73;100.00;96200.09;7400185;19;20397;-77
2023/06/20 08:56:22;;;;;;;17.87;16.20;;;;;;;24.33;100.00;96221.06;7397346;19;20424;-77
2023/06/20 08:58:48;;;;;;;14.97;13.67;;;;;;;24.80;100.00;96228.16;7400824;19;20386;-77
2023/06/20 09:01:15;;;;;;;14.50;13.20;;;;;;;24.88;100.00;96216.75;7396708;19;20365;-76
2023/06/20 09:03:42;;;;;;;15.23;13.90;;;;;;;25.32;100.00;96217.25;7400003;19;20757;-76
2023/06/20 09:06:09;;;;;;;14.37;13.27;;;;;;;25.20;100.00;96216.00;7394664;19;20459;-77
2023/06/20 09:08:39;;;;;;;14.40;13.20;;;;;;;24.91;100.00;96231.38;7406851;19;20445;-77
2023/06/20 09:11:08;;;;;;;15.50;14.20;;;;;;;24.95;100.00;96223.91;7401118;19;20391;-77
2023/06/20 09:13:35;;;;;;;16.07;14.77;;;;;;;25.26;100.00;96217.00;7398981;19;20911;-77
2023/06/20 09:16:10;;;;;;;14.93;13.73;;;;;;;25.51;100.00;96213.66;7398411;19;21103;-77
2023/06/20 09:18:40;;;;;;;15.90;14.30;;;;;;;25.36;100.00;96209.78;7397207;19;20378;-77
2023/06/20 09:21:15;;;;;;;12.13;11.13;;;;;;;25.99;100.00;96211.25;7404083;19;20341;-78
2023/06/20 09:23:42;;;;;;;12.30;11.20;;;;;;;26.10;100.00;96234.16;7400336;19;20419;-77
2023/06/20 09:26:14;;;;;;;12.00;11.00;;;;;;;26.54;100.00;96237.16;7399323;19;20465;-77
2023/06/20 09:28:42;;;;;;;11.77;10.67;;;;;;;25.91;100.00;96232.38;7405683;19;20420;-77
2023/06/20 09:31:09;;;;;;;10.60;9.80;;;;;;;25.81;100.00;96209.78;7406701;19;20372;-77
2023/06/20 09:33:37;;;;;;;10.73;9.63;;;;;;;25.91;100.00;96208.75;7410210;19;20930;-77
2023/06/20 09:36:16;;;;;;;10.13;9.37;;;;;;;26.17;100.00;96214.97;7406871;19;20406;-77
2023/06/20 09:38:52;;;;;;;9.73;8.77;;;;;;;26.20;100.00;96216.06;7402625;19;20389;-76
2023/06/20 09:41:19;;;;;;;10.30;9.50;;;;;;;26.42;99.97;96208.09;7406511;19;20439;-77
2023/06/20 09:43:46;;;;;;;10.20;9.20;;;;;;;26.56;99.01;96199.50;7409508;19;20405;-76
2023/06/20 09:46:13;;;;;;;8.97;8.20;;;;;;;26.37;100.00;96195.84;7404253;19;20457;-77
2023/06/20 09:48:42;;;;;;;9.73;8.63;;;;;;;26.34;99.02;96210.22;7408468;19;20377;-77
2023/06/20 09:51:09;;;;;;;9.23;8.37;;;;;;;26.45;99.46;96191.72;7406442;19;20334;-77
2023/06/20 09:54:02;;;;;;;8.80;8.07;;;;;;;26.58;98.51;96216.13;7408064;19;20392;-78
2023/06/20 09:56:33;;;;;;;8.47;7.77;;;;;;;26.34;95.60;96204.81;7409337;19;20365;-78
2023/06/20 09:59:03;;;;;;;7.60;7.07;;;;;;;26.35;96.52;96198.19;7407306;19;20409;-78
2023/06/20 10:01:32;;;;;;;7.37;6.77;;;;;;;26.40;96.24;96175.97;7405996;19;20480;-75
2023/06/20 10:03:59;;;;;;;10.80;7.70;;;;;;;26.06;98.04;96179.28;7407403;19;20727;-76
2023/06/20 10:06:27;;;;;;;8.40;7.73;;;;;;;26.67;96.40;96199.94;7402544;19;20429;-76
2023/06/20 10:08:54;;;;;;;8.27;7.67;;;;;;;26.95;93.67;96201.00;7400211;19;20892;-76
2023/06/20 10:11:21;;;;;;;8.83;8.13;;;;;;;27.03;93.93;96204.28;7401810;19;20374;-76
2023/06/20 10:13:49;;;;;;;8.70;8.10;;;;;;;27.29;91.04;96196.84;7398427;19;20378;-77
2023/06/20 10:16:16;;;;;;;8.70;8.10;;;;;;;27.29;91.00;96183.25;7399510;19;20457;-76
2023/06/20 10:18:47;;;;;;;7.70;7.20;;;;;;;27.76;87.50;96193.31;7398451;19;20383;-76
2023/06/20 10:21:14;;;;;;;7.63;7.13;;;;;;;27.70;85.97;96198.56;7403038;19;20355;-75
2023/06/20 10:23:44;;;;;;;7.10;6.60;;;;;;;27.82;83.43;96195.03;7401824;19;20392;-75
2023/06/20 10:26:12;;;;;;;7.80;7.20;;;;;;;27.83;84.18;96199.25;7401335;19;20391;-75
2023/06/20 10:28:39;;;;;;;7.70;7.17;;;;;;;28.03;83.68;96187.28;7399944;19;20416;-75
2023/06/20 10:31:06;;;;;;;7.07;6.47;;;;;;;28.47;83.44;96196.16;7401758;19;20479;-75
2023/06/20 10:33:37;;;;;;;7.07;6.50;;;;;;;28.54;81.47;96190.44;7399456;19;20405;-76
2023/06/20 10:36:11;;;;;;;7.17;6.67;;;;;;;28.73;79.94;96192.03;7399127;19;20395;-75
2023/06/20 10:38:39;;;;;;;8.03;7.43;;;;;;;28.79;79.76;96192.19;7394320;19;20777;-75
2023/06/20 10:41:12;;;;;;;11.30;6.30;;;;;;;28.47;79.42;96194.19;7403406;19;20390;-75
2023/06/20 10:43:51;;;;;;;7.20;6.70;;;;;;;28.88;78.44;96186.78;7398330;19;20390;-75
2023/06/20 10:46:21;;;;;;;7.50;6.90;;;;;;;28.45;78.39;96183.00;7399171;19;20412;-75
2023/06/20 10:48:48;;;;;;;7.77;7.17;;;;;;;28.55;77.26;96153.84;7402168;19;20696;-76
2023/06/20 10:51:15;;;;;;;7.63;6.93;;;;;;;28.45;77.70;96158.53;7397441;19;20392;-76
2023/06/20 10:53:42;;;;;;;6.80;6.20;;;;;;;28.60;75.96;96156.00;7402198;19;20344;-76
2023/06/20 10:56:27;;;;;;;5.73;5.33;;;;;;;28.64;76.07;96136.78;7395072;19;20419;-75
2023/06/20 10:58:54;;;;;;;5.87;5.47;;;;;;;28.89;75.46;96144.00;7395996;19;20939;-75
2023/06/20 11:01:26;;;;;;;5.50;5.10;;;;;;;29.41;75.86;96170.97;7397524;19;20380;-75
2023/06/20 11:03:55;;;;;;;6.30;5.80;;;;;;;29.09;72.86;96166.84;7399982;19;20376;-75
2023/06/20 11:06:22;;;;;;;6.67;6.17;;;;;;;29.38;72.81;96160.97;7397121;19;20392;-75
2023/06/20 11:08:48;;;;;;;5.80;5.30;;;;;;;29.44;72.13;96156.44;7399884;19;20961;-76
2023/06/20 11:11:15;;;;;;;6.73;6.10;;;;;;;29.24;71.80;96164.28;7404596;19;20939;-75
2023/06/20 11:13:45;;;;;;;6.33;5.50;;;;;;;29.16;72.37;96133.13;7398813;19;20393;-75
2023/06/20 11:16:19;;;;;;;5.87;5.47;;;;;;;29.11;71.30;96153.56;7397394;19;20956;-75
2023/06/20 11:18:46;;;;;;;5.50;4.90;;;;;;;28.36;70.41;96111.47;7397836;19;20353;-75
2023/06/20 11:21:16;;;;;;;6.23;5.73;;;;;;;28.29;71.26;96163.41;7400831;19;20396;-76